aviador You're here:

KTCL Decoded Metar

TUSCALOOSA in AL, USA
Report Time2018-01-19 18:53:00
UTC Time2018-01-19 19:13:15
Flight Rules vfr VFR
Wind280° at 03 kt
W.Decomp.*RWY 29: 3.0 kt HW 0.5 kt LCW
RWY 22: 1.5 kt HW 2.6 kt RCW
W.Rank280° ranks 35
Current wind is below 280° avg. (6.1)
Visibility9999 m
Phenomena:N/A
Clouds:N/A
Expected CloudBase > 7,200 ft AGL from Temp-Dew spread
CeilingNone
Temp09°C (ISA -6)
Dew Point-9°C (27% RH)
AAT4.9°C
QNH1026 hPa
Density Alt-912 ft
Elevation161 ft
Report Wrong Elevation
Raw Report
METAR KTCL 191853Z 28003KT 10SM CLR 09/M09 A3031 RMK AO2 SLP264 T00891094=

Extra information for KTCL:More info

Metar Taf Metar & Taf Last 4 Metars F.Rules Stats Wind Profile Meteogram Temp Stats Airport Information Weather charts Add Link Nearby VenuesMetar ALERT Operation Metar Decoded Social comments

AIRNAV info for KTCL